Time;durP1;ratioP1;P1;durP2;ratioP2;P2;SDS_P1;SDS_P2;PMS_P1;PMS_P2;Temp;Humidity;BMP_temperature;BMP_pressure;BME280_temperature;BME280_humidity;BME280_pressure;Samples;Min_cycle;Max_cycle;Signal;HPM_P1;HPM_P2
2021/05/10 01:44:24;;;;;;;2.38;1.00;;;;;;;17.54;41.80;95666.44;5019260;28;20066;-80
2021/05/10 02:07:21;;;;;;;2.95;1.00;;;;;;;17.21;42.77;95689.28;5019676;28;20090;-78
2021/05/10 03:15:01;;;;;;;2.67;0.98;;;;;;;17.02;42.56;95659.00;4995107;28;20077;-86
2021/05/10 03:17:58;;;;;;;2.35;1.10;;;;;;;17.01;42.24;95662.66;4999174;28;20035;-86
2021/05/10 03:20:35;;;;;;;1.40;1.30;;;;;;;17.01;42.00;95673.22;4999917;28;20070;-86
2021/05/10 03:23:09;;;;;;;3.30;1.00;;;;;;;17.02;42.41;95675.59;4999405;28;20049;-85
2021/05/10 03:25:56;;;;;;;1.25;0.90;;;;;;;17.01;42.39;95667.94;4999267;28;20054;-87
2021/05/10 03:28:54;;;;;;;1.42;1.17;;;;;;;17.00;42.62;95667.16;4999707;28;20066;-88
2021/05/10 03:31:43;;;;;;;4.93;1.27;;;;;;;16.98;42.95;95671.06;4997706;28;20057;-88
2021/05/10 03:37:12;;;;;;;3.55;1.02;;;;;;;16.91;43.54;95668.63;4992847;28;20062;-87
2021/05/10 03:40:06;;;;;;;3.60;1.33;;;;;;;16.87;43.84;95652.50;4998744;28;20046;-87
2021/05/10 03:42:48;;;;;;;1.95;1.02;;;;;;;16.83;43.93;95638.22;4998845;28;20074;-87
2021/05/10 03:45:25;;;;;;;2.63;0.93;;;;;;;16.79;44.12;95638.94;4998767;28;20059;-86
2021/05/10 03:48:21;;;;;;;3.50;0.90;;;;;;;16.74;44.24;95650.19;4998913;28;20046;-87
2021/05/10 03:51:17;;;;;;;2.35;1.10;;;;;;;16.72;43.58;95662.03;4998361;28;20082;-85
2021/05/10 03:56:59;;;;;;;3.22;1.10;;;;;;;16.76;44.33;95660.50;4989114;28;20043;-87
2021/05/10 03:59:48;;;;;;;2.75;1.05;;;;;;;16.76;44.32;95656.03;4999037;28;20062;-84
2021/05/10 04:02:31;;;;;;;4.70;1.10;;;;;;;16.78;44.23;95663.69;4999119;28;20037;-86
2021/05/10 04:18:20;;;;;;;2.92;1.10;;;;;;;16.94;43.12;95667.34;4999179;28;20050;-88
2021/05/10 04:24:59;;;;;;;2.25;1.13;;;;;;;17.04;43.13;95678.00;4980465;28;20050;-86
2021/05/10 04:28:04;;;;;;;3.33;1.05;;;;;;;17.07;43.16;95683.56;4984391;28;20039;-87
2021/05/10 04:34:35;;;;;;;2.72;1.10;;;;;;;17.15;43.37;95716.63;4862725;29;20048;-87
2021/05/10 04:38:11;;;;;;;2.15;1.00;;;;;;;17.19;43.43;95728.25;4880487;29;20041;-87
2021/05/10 04:41:28;;;;;;;1.45;1.35;;;;;;;17.25;43.70;95737.00;4934875;29;20143;-88
2021/05/10 04:55:03;;;;;;;2.85;1.33;;;;;;;17.38;42.99;95727.94;4981400;28;20051;-88
2021/05/10 05:07:00;;;;;;;2.03;1.42;;;;;;;17.57;43.17;95729.22;5001393;28;20078;-86
2021/05/10 05:09:57;;;;;;;4.10;1.20;;;;;;;17.64;42.44;95735.09;4998745;28;20050;-89
2021/05/10 05:12:31;;;;;;;2.20;1.42;;;;;;;17.71;42.41;95740.19;5001753;28;20098;-87
2021/05/10 05:15:09;;;;;;;1.77;1.00;;;;;;;17.77;42.12;95727.84;5001806;28;20042;-87
2021/05/10 05:17:39;;;;;;;2.60;1.55;;;;;;;17.82;41.89;95728.75;5002068;28;20047;-88
2021/05/10 05:20:13;;;;;;;4.95;1.88;;;;;;;17.88;42.02;95734.84;5002010;28;20055;-88
2021/05/10 05:23:25;;;;;;;5.05;1.27;;;;;;;17.94;41.74;95733.06;5002163;28;20072;-88
2021/05/10 05:26:13;;;;;;;11.02;2.60;;;;;;;17.97;41.52;95733.34;5001524;28;20099;-88
2021/05/10 05:29:22;;;;;;;;;;;;;;;;;;;;;
2021/05/10 05:32:25;;;;;;;11.15;2.90;;;;;;;18.04;41.72;95727.88;5002080;28;20050;-87
2021/05/10 05:34:54;;;;;;;3.50;1.83;;;;;;;18.04;42.04;95723.41;5001960;28;20099;-87
2021/05/10 05:37:32;;;;;;;35.25;4.75;;;;;;;18.06;42.13;95720.50;5002732;28;20038;-89
2021/05/10 05:40:07;;;;;;;10.75;2.75;;;;;;;18.07;41.95;95722.09;5002673;28;20103;-89
2021/05/10 05:43:07;;;;;;;2.25;1.35;;;;;;;18.09;42.10;95717.38;5002184;28;20042;-88
2021/05/10 05:45:39;;;;;;;5.97;1.40;;;;;;;18.15;42.22;95712.91;4981250;28;20059;-86
2021/05/10 05:48:08;;;;;;;3.35;1.67;;;;;;;18.19;42.02;95720.09;4982969;28;20098;-87
2021/05/10 05:50:39;;;;;;;2.17;1.10;;;;;;;18.26;42.27;95725.19;4982677;28;20058;-87
2021/05/10 05:53:10;;;;;;;8.90;2.03;;;;;;;18.30;42.21;95724.41;4982337;28;20086;-87
2021/05/10 05:55:37;;;;;;;2.92;1.88;;;;;;;18.36;42.07;95717.31;4982532;28;20112;-88
2021/05/10 05:58:05;;;;;;;10.32;2.45;;;;;;;18.43;42.81;95730.31;4979787;28;20043;-83
2021/05/10 06:00:32;;;;;;;12.63;2.78;;;;;;;18.48;42.47;95730.34;4978657;28;20031;-85
2021/05/10 06:02:58;;;;;;;4.85;2.30;;;;;;;18.55;43.02;95719.56;4978922;29;20071;-82
2021/05/10 06:05:25;;;;;;;5.40;2.30;;;;;;;18.61;42.81;95723.84;4979883;28;20051;-81
2021/05/10 06:07:52;;;;;;;14.70;3.00;;;;;;;18.66;42.24;95715.94;4975152;29;20047;-80
2021/05/10 06:10:22;;;;;;;9.43;2.40;;;;;;;18.74;42.20;95726.06;4971055;29;20062;-88
2021/05/10 06:12:51;;;;;;;9.15;1.92;;;;;;;18.82;41.78;95722.94;4971365;29;20067;-89
2021/05/10 06:15:23;;;;;;;3.28;2.22;;;;;;;18.89;41.61;95728.81;4972209;28;20082;-89
2021/05/10 06:18:00;;;;;;;2.93;1.30;;;;;;;18.97;41.78;95738.09;4984942;28;20055;-90
2021/05/10 06:20:30;;;;;;;23.85;4.07;;;;;;;19.07;41.72;95745.31;4996975;28;20083;-89
2021/05/10 06:23:02;;;;;;;3.75;2.00;;;;;;;19.14;41.48;95746.66;4999157;28;20050;-86
2021/05/10 06:25:52;;;;;;;4.47;2.40;;;;;;;19.20;41.26;95744.84;4998853;28;20058;-88
2021/05/10 06:28:33;;;;;;;5.40;2.47;;;;;;;19.24;41.60;95750.38;4998097;28;20050;-89
2021/05/10 06:31:46;;;;;;;16.55;3.72;;;;;;;19.30;41.51;95747.50;5000424;28;20066;-88
2021/05/10 06:34:27;;;;;;;12.15;2.85;;;;;;;19.35;42.01;95763.41;4994378;28;20102;-89
2021/05/10 06:37:18;;;;;;;5.85;2.33;;;;;;;19.43;41.71;95766.63;5000431;28;20044;-89
2021/05/10 06:39:53;;;;;;;4.15;1.90;;;;;;;19.50;41.14;95797.06;5000052;28;20123;-89
2021/05/10 06:42:40;;;;;;;4.13;1.85;;;;;;;19.56;41.36;95795.22;5000113;28;20089;-88
2021/05/10 06:45:37;;;;;;;7.03;2.50;;;;;;;19.63;41.56;95795.78;4999569;28;20086;-88
2021/05/10 06:48:17;;;;;;;9.77;2.63;;;;;;;19.69;41.73;95794.78;5000042;28;20066;-89
2021/05/10 06:50:58;;;;;;;5.32;2.30;;;;;;;19.78;41.91;95802.22;5000296;28;20039;-89
2021/05/10 06:53:33;;;;;;;7.70;2.33;;;;;;;19.86;41.71;95794.59;5000143;28;20065;-87
2021/05/10 06:56:09;;;;;;;9.25;2.47;;;;;;;19.95;41.71;95789.56;4998904;28;20054;-87
2021/05/10 06:59:00;;;;;;;8.32;2.28;;;;;;;20.04;41.49;95793.28;4998722;28;20107;-88
2021/05/10 07:01:33;;;;;;;6.88;2.35;;;;;;;20.15;41.79;95789.63;4999997;28;20050;-86
2021/05/10 07:04:04;;;;;;;6.28;1.70;;;;;;;20.26;41.44;95781.69;4999613;28;20045;-87
2021/05/10 07:06:34;;;;;;;6.85;1.95;;;;;;;20.37;41.25;95767.41;5000091;28;20027;-89
2021/05/10 07:09:09;;;;;;;30.70;5.20;;;;;;;20.48;40.72;95766.34;4999904;28;20031;-88
2021/05/10 07:11:37;;;;;;;24.90;3.75;;;;;;;20.62;41.08;95758.69;4999828;28;20053;-87
2021/05/10 07:14:05;;;;;;;10.77;2.20;;;;;;;20.76;40.46;95753.66;4998721;28;20035;-87
2021/05/10 07:16:37;;;;;;;7.38;1.65;;;;;;;20.92;40.34;95747.25;4998117;28;20046;-88
2021/05/10 07:19:07;;;;;;;6.63;1.33;;;;;;;21.06;39.15;95747.50;4997701;28;20039;-88
2021/05/10 07:21:38;;;;;;;1.65;0.80;;;;;;;21.20;38.86;95743.19;4999205;28;20066;-89
2021/05/10 07:24:06;;;;;;;2.92;0.82;;;;;;;21.32;38.37;95748.22;4999168;28;20077;-91
2021/05/10 07:26:34;;;;;;;4.10;1.05;;;;;;;21.46;39.58;95752.97;4998221;28;20053;-90
2021/05/10 07:29:07;;;;;;;4.28;1.15;;;;;;;21.55;40.48;95759.28;4998029;28;20069;-87
2021/05/10 07:31:35;;;;;;;2.28;0.93;;;;;;;21.65;37.83;95761.91;4998891;28;20184;-86
2021/05/10 07:34:07;;;;;;;4.53;1.00;;;;;;;21.75;37.22;95764.50;4998760;28;20057;-88
2021/05/10 07:36:44;;;;;;;2.28;1.20;;;;;;;21.87;37.69;95782.00;4997484;28;20686;-87
2021/05/10 07:51:44;;;;;;;4.18;1.05;;;;;;;22.32;36.68;95831.41;5037245;23;20045;-88
2021/05/10 07:54:50;;;;;;;3.25;0.98;;;;;;;22.41;35.85;95839.59;5026416;28;20076;-87
2021/05/10 07:57:32;;;;;;;7.00;0.98;;;;;;;22.44;35.38;95840.94;5006243;28;20038;-88
2021/05/10 08:00:21;;;;;;;2.13;0.80;;;;;;;22.47;35.83;95835.84;5018013;28;20081;-87
2021/05/10 08:02:59;;;;;;;0.88;0.70;;;;;;;22.49;35.87;95831.03;5018270;28;20045;-89
2021/05/10 08:05:45;;;;;;;2.70;0.98;;;;;;;22.50;35.92;95832.66;5017774;28;20041;-89
2021/05/10 08:08:22;;;;;;;;;;;;;;;22.55;36.60;95824.63;5018315;28;20053;-89
2021/05/10 08:10:57;;;;;;;2.25;1.00;;;;;;;22.58;36.32;95813.44;5017908;28;20067;-90
2021/05/10 08:13:50;;;;;;;1.80;0.90;;;;;;;22.65;37.26;95813.09;5017332;28;20102;-87
2021/05/10 08:16:42;;;;;;;1.17;1.02;;;;;;;22.74;37.78;95838.06;5014463;28;20105;-86
2021/05/10 08:19:23;;;;;;;1.75;0.82;;;;;;;22.78;37.87;95838.28;5001812;28;20053;-82
2021/05/10 08:21:58;;;;;;;1.38;0.90;;;;;;;22.84;37.28;95842.47;5004395;28;20189;-87
2021/05/10 08:24:42;;;;;;;3.00;1.02;;;;;;;22.90;37.42;95837.94;5006571;28;20077;-86
2021/05/10 08:27:10;;;;;;;2.70;0.90;;;;;;;22.95;37.14;95838.66;5004755;28;20513;-84
2021/05/10 08:29:37;;;;;;;0.85;0.63;;;;;;;23.01;36.84;95828.81;5004602;28;20081;-83
2021/05/10 08:32:04;;;;;;;1.73;0.93;;;;;;;23.09;36.90;95822.91;5003497;28;20104;-86
2021/05/10 08:34:31;;;;;;;3.25;1.35;;;;;;;23.13;36.86;95839.84;5005061;28;20073;-84
2021/05/10 08:36:58;;;;;;;3.15;1.15;;;;;;;23.15;36.35;95836.94;5005530;28;20060;-79
2021/05/10 08:39:25;;;;;;;9.80;1.20;;;;;;;23.19;36.33;95838.75;5004547;28;20042;-82
2021/05/10 08:41:52;;;;;;;2.58;0.80;;;;;;;23.22;35.02;95842.69;5005132;28;20073;-80
2021/05/10 08:44:19;;;;;;;1.48;1.38;;;;;;;23.25;34.59;95847.47;5004031;28;20050;-79
2021/05/10 08:46:46;;;;;;;3.92;1.00;;;;;;;23.27;34.65;95861.31;5002127;28;20527;-80
2021/05/10 08:49:18;;;;;;;1.80;0.90;;;;;;;23.33;35.12;95865.50;5000591;28;20054;-83
2021/05/10 08:51:45;;;;;;;4.93;1.27;;;;;;;23.41;35.91;95856.88;5004882;28;20053;-85
2021/05/10 08:54:24;;;;;;;0.93;0.77;;;;;;;23.51;35.29;95858.66;5007931;28;20061;-88
2021/05/10 08:56:52;;;;;;;3.08;0.93;;;;;;;23.55;35.63;95851.72;5011950;28;20057;-86
2021/05/10 08:59:22;;;;;;;1.23;0.73;;;;;;;23.61;34.94;95849.75;5009764;28;20050;-88
2021/05/10 09:01:58;;;;;;;1.23;0.90;;;;;;;23.63;34.98;95843.06;5009488;28;20046;-87
2021/05/10 10:14:55;;;;;;;2.72;0.85;;;;;;;25.65;31.24;95829.19;4997325;28;20051;-80
2021/05/10 10:17:32;;;;;;;9.00;1.65;;;;;;;25.68;32.89;95839.28;5000597;28;20090;-80
2021/05/10 10:22:54;;;;;;;1.20;0.80;;;;;;;25.75;31.03;95844.22;5020137;28;20069;-80
2021/05/10 10:25:22;;;;;;;1.15;0.63;;;;;;;25.78;31.65;95848.97;5020755;28;20034;-79
2021/05/10 10:28:23;;;;;;;0.95;0.80;;;;;;;25.83;30.63;95851.56;5020663;28;20033;-80
2021/05/10 10:44:45;;;;;;;7.15;1.38;;;;;;;26.40;32.52;95870.69;5428422;23;20058;-80
2021/05/10 16:17:00;;;;;;;1.20;0.30;;;;;;;20.24;43.21;95979.78;6011788;23;19959;-80
2021/05/10 16:25:30;;;;;;;0.15;0.05;;;;;;;20.05;43.85;95982.88;5462441;23;20082;-80
2021/05/10 16:28:01;;;;;;;1.58;0.10;;;;;;;20.02;44.12;95978.06;4991947;28;20058;-80
2021/05/10 16:30:33;;;;;;;2.38;0.10;;;;;;;20.01;44.07;95981.78;4994565;28;20073;-79
2021/05/10 16:33:03;;;;;;;0.00;0.00;;;;;;;19.95;44.41;95982.81;4995533;28;20132;-79
2021/05/10 16:35:32;;;;;;;0.00;0.00;;;;;;;19.89;44.31;95962.66;4998235;28;20046;-79
2021/05/10 16:38:01;;;;;;;1.88;0.10;;;;;;;19.85;44.19;95950.97;4993780;28;20060;-78
2021/05/10 16:40:28;;;;;;;3.40;0.20;;;;;;;19.80;44.20;95943.81;4995337;28;20129;-79
2021/05/10 16:42:59;;;;;;;0.98;0.10;;;;;;;19.74;44.42;95950.94;4983275;28;20105;-80
2021/05/10 16:48:26;;;;;;;0.57;0.10;;;;;;;19.64;44.67;95956.13;5669436;23;20062;-82
2021/05/10 16:51:06;;;;;;;1.02;0.22;;;;;;;19.59;44.84;95942.88;4979253;28;20058;-81
2021/05/10 16:53:43;;;;;;;0.65;0.10;;;;;;;19.55;45.11;95944.44;4963236;28;20098;-82
2021/05/10 16:56:22;;;;;;;0.45;0.13;;;;;;;19.51;45.26;95948.63;4992509;23;20113;-82
2021/05/10 17:01:49;;;;;;;0.80;0.35;;;;;;;19.45;46.19;95952.28;5574477;23;20058;-82
2021/05/10 17:04:32;;;;;;;1.40;0.10;;;;;;;19.40;46.16;95949.63;4991726;28;20058;-82
2021/05/10 17:07:05;;;;;;;2.40;0.10;;;;;;;19.38;46.11;95954.38;4988784;28;20059;-81
2021/05/10 17:09:35;;;;;;;0.65;0.20;;;;;;;19.33;46.44;95971.78;5000461;28;20055;-81
2021/05/10 17:12:08;;;;;;;1.13;0.10;;;;;;;19.31;46.36;95968.59;4998575;28;20051;-81
2021/05/10 17:14:47;;;;;;;0.15;0.10;;;;;;;19.24;46.52;95970.66;4999904;28;20051;-81
2021/05/10 17:17:22;;;;;;;0.45;0.22;;;;;;;19.18;46.74;95963.72;4995712;28;20065;-81
2021/05/10 17:19:56;;;;;;;0.40;0.03;;;;;;;19.14;47.25;95976.63;4993260;28;20065;-81
2021/05/10 17:22:25;;;;;;;0.38;0.10;;;;;;;19.10;47.18;95972.09;4992235;28;20054;-81
2021/05/10 17:24:58;;;;;;;0.20;0.10;;;;;;;19.08;47.50;95977.63;4991449;28;20510;-81
2021/05/10 17:27:28;;;;;;;1.33;0.20;;;;;;;19.04;47.37;95973.09;4990888;28;20078;-81
2021/05/10 17:30:02;;;;;;;1.75;0.15;;;;;;;19.02;47.64;95967.28;4992250;28;20058;-81
2021/05/10 17:32:35;;;;;;;1.77;0.10;;;;;;;18.99;47.87;95959.84;5096713;23;21032;-81
2021/05/10 17:35:09;;;;;;;;;;;;;;;18.96;47.58;95955.06;4956596;28;20034;-80
2021/05/10 17:51:44;;;;;;;0.22;0.10;;;;;;;18.75;48.30;95960.13;4951357;28;20055;-80
